Time;durP1;ratioP1;P1;durP2;ratioP2;P2;SDS_P1;SDS_P2;PMS_P1;PMS_P2;Temp;Humidity;BMP_temperature;BMP_pressure;BME280_temperature;BME280_humidity;BME280_pressure;Samples;Min_cycle;Max_cycle;Signal;HPM_P1;HPM_P2
2021/12/18 00:00:39;;;;;;;10.45;9.45;;;-0.20;91.50;-0.60;98403.00;;;;5024365;28;88640;-61
2021/12/18 00:03:06;;;;;;;9.90;8.90;;;-0.20;91.50;-0.60;98402.00;;;;5021930;28;86664;-61
2021/12/18 00:05:33;;;;;;;9.90;9.00;;;-0.20;91.50;-0.60;98404.00;;;;5024183;28;86904;-61
2021/12/18 00:08:00;;;;;;;11.48;10.27;;;-0.20;91.50;-0.60;98398.00;;;;5024800;28;87022;-61
2021/12/18 00:10:26;;;;;;;9.45;8.45;;;-0.20;91.60;-0.60;98407.00;;;;5022684;28;88438;-61
2021/12/18 00:12:53;;;;;;;10.05;8.75;;;-0.20;91.40;-0.60;98406.00;;;;5024163;28;88120;-61
2021/12/18 00:15:24;;;;;;;9.10;8.13;;;-0.10;91.40;-0.60;98405.00;;;;5024632;28;87475;-62
2021/12/18 00:17:50;;;;;;;11.10;8.77;;;-0.10;91.30;-0.60;98398.00;;;;5009060;28;86885;-61
2021/12/18 00:20:17;;;;;;;10.43;9.43;;;-0.10;91.50;-0.60;98396.00;;;;5023349;28;87720;-61
2021/12/18 00:22:44;;;;;;;11.27;10.20;;;-0.10;91.60;-0.60;98397.00;;;;5024355;28;87073;-61
2021/12/18 00:25:12;;;;;;;12.48;10.98;;;-0.10;91.60;-0.60;98398.00;;;;5035477;28;87921;-61
2021/12/18 00:27:39;;;;;;;11.55;10.35;;;-0.10;91.80;-0.60;98398.00;;;;5023149;28;86273;-61
2021/12/18 00:30:08;;;;;;;11.85;10.75;;;-0.10;91.80;-0.50;98395.00;;;;5022956;28;87766;-61
2021/12/18 00:32:34;;;;;;;9.70;8.80;;;-0.10;91.70;-0.50;98400.00;;;;5022939;28;88506;-61
2021/12/18 00:35:00;;;;;;;10.68;9.68;;;-0.10;91.60;-0.50;98408.00;;;;5017535;28;87889;-61
2021/12/18 00:37:26;;;;;;;9.65;8.75;;;-0.10;91.30;-0.50;98411.00;;;;5023199;28;86979;-61
2021/12/18 00:39:57;;;;;;;10.45;9.45;;;-0.10;91.30;-0.50;98406.00;;;;5023570;28;88922;-61
2021/12/18 00:42:38;;;;;;;9.80;8.90;;;-0.10;91.30;-0.50;98401.00;;;;5023848;28;87572;-61
2021/12/18 00:45:09;;;;;;;9.55;8.55;;;0.00;91.30;-0.50;98403.00;;;;5023772;28;87066;-61
2021/12/18 00:47:35;;;;;;;9.25;8.25;;;0.00;91.60;-0.50;98402.00;;;;5022274;28;86923;-61
2021/12/18 00:50:04;;;;;;;9.38;8.48;;;0.00;91.10;-0.50;98395.00;;;;5021876;28;87640;-61
2021/12/18 00:52:30;;;;;;;9.50;8.68;;;0.00;91.10;-0.50;98400.00;;;;5024176;28;87194;-61
2021/12/18 00:54:56;;;;;;;9.02;8.23;;;0.00;91.20;-0.50;98391.00;;;;5023044;28;86924;-62
2021/12/18 00:57:22;;;;;;;9.25;8.38;;;0.00;91.10;-0.50;98407.00;;;;5020576;28;87062;-61
2021/12/18 00:59:51;;;;;;;9.57;8.57;;;0.00;91.00;-0.50;98395.00;;;;5022331;28;88829;-62
2021/12/18 01:02:17;;;;;;;8.88;7.97;;;0.00;90.90;-0.40;98406.00;;;;5022992;28;87948;-61
2021/12/18 01:04:44;;;;;;;8.63;7.82;;;0.00;90.80;-0.40;98406.00;;;;5022445;28;87075;-61
2021/12/18 01:07:10;;;;;;;8.00;7.22;;;0.00;90.90;-0.40;98407.00;;;;5023297;28;87089;-61
2021/12/18 01:10:02;;;;;;;8.02;7.25;;;0.00;90.70;-0.40;98404.00;;;;5023735;28;86942;-61
2021/12/18 01:12:28;;;;;;;8.90;8.00;;;0.00;90.70;-0.40;98407.00;;;;5022832;28;88374;-62
2021/12/18 01:15:11;;;;;;;9.13;8.23;;;0.00;90.70;-0.40;98405.00;;;;5023468;28;86907;-62
2021/12/18 01:23:08;;;;;;;8.15;7.32;;;0.10;90.80;-0.40;98410.00;;;;5024880;28;88241;-62
2021/12/18 01:25:34;;;;;;;9.52;8.40;;;0.10;90.80;-0.40;98416.00;;;;5030773;28;87938;-62
2021/12/18 01:28:01;;;;;;;9.20;8.32;;;0.10;90.80;-0.40;98414.00;;;;5022754;28;87100;-62
2021/12/18 01:30:28;;;;;;;10.13;9.13;;;0.10;90.90;-0.40;98410.00;;;;5021039;28;88667;-61
2021/12/18 01:32:55;;;;;;;11.30;10.30;;;0.10;91.10;-0.40;98408.00;;;;5022241;28;87128;-62
2021/12/18 01:35:22;;;;;;;11.90;10.80;;;0.10;91.30;-0.40;98408.00;;;;5021540;28;87035;-62
2021/12/18 01:37:50;;;;;;;12.50;11.38;;;0.10;91.60;-0.40;98408.00;;;;5022314;28;87052;-62
2021/12/18 01:40:19;;;;;;;14.02;12.63;;;0.00;92.20;-0.40;98401.00;;;;5022816;28;87529;-62
2021/12/18 01:53:19;;;;;;;10.75;9.75;;;-0.10;92.50;-0.50;98412.00;;;;5022232;28;88476;-61
2021/12/18 01:55:47;;;;;;;9.88;8.98;;;-0.10;92.30;-0.50;98415.00;;;;5022833;28;88119;-61
2021/12/18 01:58:13;;;;;;;9.88;8.98;;;-0.10;92.10;-0.50;98412.00;;;;5038901;28;86957;-61
2021/12/18 02:00:42;;;;;;;9.82;8.93;;;-0.10;92.10;-0.50;98422.00;;;;5022797;28;87062;-61
2021/12/18 02:03:10;;;;;;;9.65;8.75;;;-0.10;91.90;-0.50;98424.00;;;;5021276;28;87583;-61
2021/12/18 02:05:40;;;;;;;10.23;9.23;;;0.00;91.80;-0.50;98426.00;;;;5022686;28;87644;-61
2021/12/18 02:08:07;;;;;;;8.98;8.18;;;0.00;91.70;-0.40;98418.00;;;;5023779;28;86289;-61
2021/12/18 02:13:58;;;;;;;8.85;8.00;;;0.00;91.40;-0.40;98415.00;;;;5020799;28;87894;-60
2021/12/18 02:21:52;;;;;;;8.45;7.60;;;0.10;91.20;-0.40;98421.00;;;;5021427;28;87427;-60
2021/12/18 02:24:21;;;;;;;8.80;7.90;;;0.10;90.80;-0.40;98421.00;;;;5020152;28;88386;-60
2021/12/18 02:26:47;;;;;;;8.85;7.78;;;0.10;90.60;-0.40;98420.00;;;;5014986;28;86948;-61
2021/12/18 02:29:15;;;;;;;8.40;7.28;;;0.10;90.70;-0.40;98413.00;;;;5020149;28;87409;-59
2021/12/18 02:31:42;;;;;;;9.65;8.73;;;0.10;90.60;-0.40;98417.00;;;;5020842;28;87792;-60
2021/12/18 02:34:21;;;;;;;9.10;7.53;;;0.10;90.60;-0.40;98410.00;;;;5020112;28;88371;-59
2021/12/18 02:36:49;;;;;;;9.40;8.20;;;0.10;90.60;-0.40;98417.00;;;;5017397;28;87564;-60
2021/12/18 02:39:25;;;;;;;9.63;8.20;;;0.10;90.40;-0.30;98420.00;;;;5019964;28;87525;-60
2021/12/18 02:44:39;;;;;;;9.88;8.90;;;0.10;90.40;-0.40;98428.00;;;;5020555;28;88207;-61
2021/12/18 02:47:07;;;;;;;10.50;9.40;;;0.10;90.80;-0.40;98434.00;;;;5019522;28;87061;-61
2021/12/18 02:49:34;;;;;;;13.52;12.23;;;0.00;91.40;-0.50;98428.00;;;;5019876;28;88034;-61
2021/12/18 02:52:00;;;;;;;11.63;10.43;;;-0.10;91.90;-0.50;98445.00;;;;5019428;28;87589;-61
2021/12/18 02:54:26;;;;;;;9.50;8.00;;;-0.10;92.20;-0.60;98438.00;;;;5018419;28;87556;-61
2021/12/18 02:56:53;;;;;;;7.90;6.20;;;-0.20;91.80;-0.60;98457.00;;;;5022809;28;87370;-61
2021/12/18 02:59:20;;;;;;;5.22;4.18;;;-0.20;91.40;-0.70;98442.00;;;;5020402;28;86297;-62
2021/12/18 03:01:46;;;;;;;5.10;4.35;;;-0.20;90.30;-0.70;98455.00;;;;5020048;28;89045;-62
2021/12/18 03:04:19;;;;;;;5.85;4.63;;;-0.20;90.40;-0.60;98441.00;;;;5020497;28;87061;-61
2021/12/18 03:06:51;;;;;;;5.43;4.75;;;-0.20;90.70;-0.70;98437.00;;;;5020292;28;88253;-61
2021/12/18 03:23:30;;;;;;;3.55;2.85;;;-0.30;89.10;-0.80;98429.00;;;;5020249;28;88654;-62
2021/12/18 03:25:58;;;;;;;2.70;2.00;;;-0.30;88.60;-0.80;98434.00;;;;5027464;28;88340;-62
2021/12/18 03:28:26;;;;;;;2.20;2.00;;;-0.30;86.70;-0.90;98428.00;;;;5020551;28;86999;-63
2021/12/18 03:30:53;;;;;;;2.20;2.00;;;-0.40;86.70;-0.90;98427.00;;;;5019976;28;87252;-63
2021/12/18 03:33:19;;;;;;;1.85;1.60;;;-0.40;86.00;-0.90;98431.00;;;;5018869;28;90244;-63
2021/12/18 03:35:45;;;;;;;3.22;2.00;;;-0.50;85.90;-1.00;98447.00;;;;5018829;28;89262;-61
2021/12/18 03:38:12;;;;;;;3.25;2.13;;;-0.50;85.60;-1.00;98447.00;;;;5018654;28;87110;-61
2021/12/18 03:40:38;;;;;;;3.30;1.75;;;-0.50;85.90;-1.00;98451.00;;;;5019795;28;87010;-61
2021/12/18 03:43:05;;;;;;;2.35;1.70;;;-0.50;85.90;-1.10;98456.00;;;;5019590;28;87367;-61
2021/12/18 03:45:31;;;;;;;4.00;1.80;;;-0.60;85.50;-1.10;98458.00;;;;5019214;28;87170;-61
2021/12/18 03:47:57;;;;;;;1.52;1.35;;;-0.60;84.80;-1.10;98451.00;;;;5019259;28;87043;-61
2021/12/18 03:50:23;;;;;;;2.28;1.45;;;-0.60;84.20;-1.10;98458.00;;;;5019680;28;86575;-61
2021/12/18 03:52:50;;;;;;;2.42;1.20;;;-0.60;83.40;-1.10;98452.00;;;;5019414;28;87596;-62
2021/12/18 03:55:17;;;;;;;1.48;0.90;;;-0.60;82.40;-1.10;98450.00;;;;5019939;28;87403;-61
2021/12/18 03:57:43;;;;;;;1.50;1.20;;;-0.60;81.40;-1.10;98461.00;;;;5028647;28;88564;-61
2021/12/18 04:00:14;;;;;;;2.20;1.00;;;-0.60;81.30;-1.10;98467.00;;;;5019533;28;87190;-62
2021/12/18 04:02:41;;;;;;;1.33;0.90;;;-0.60;80.50;-1.10;98472.00;;;;5019515;28;87505;-61
2021/12/18 04:05:08;;;;;;;2.13;1.10;;;-0.60;79.70;-1.10;98468.00;;;;5019367;28;88342;-61
2021/12/18 04:07:41;;;;;;;2.10;1.15;;;-0.60;79.50;-1.10;98454.00;;;;5019146;28;87461;-60
2021/12/18 04:10:11;;;;;;;1.00;0.90;;;-0.60;78.90;-1.10;98458.00;;;;5019492;28;87287;-62
2021/12/18 04:12:37;;;;;;;2.65;1.00;;;-0.60;77.80;-1.00;98477.00;;;;5020133;28;86951;-61
2021/12/18 04:15:05;;;;;;;1.48;0.98;;;-0.60;78.50;-1.00;98462.00;;;;5022868;28;87508;-61
2021/12/18 04:17:31;;;;;;;1.05;0.95;;;-0.60;77.70;-1.10;98462.00;;;;5022586;28;87366;-61
2021/12/18 04:19:57;;;;;;;1.63;1.00;;;-0.60;78.00;-1.00;98458.00;;;;5022034;28;87014;-61
2021/12/18 04:22:23;;;;;;;1.48;1.08;;;-0.60;78.20;-1.10;98479.00;;;;5021980;28;88763;-62
2021/12/18 04:24:50;;;;;;;1.88;1.00;;;-0.60;78.40;-1.00;98477.00;;;;5022570;28;88187;-62
2021/12/18 04:27:16;;;;;;;1.98;1.20;;;-0.60;78.30;-1.10;98463.00;;;;5021741;28;87112;-62
2021/12/18 04:29:42;;;;;;;2.05;1.25;;;-0.60;78.40;-1.10;98472.00;;;;5022459;28;86995;-62
2021/12/18 04:32:08;;;;;;;3.40;1.55;;;-0.60;77.10;-1.10;98462.00;;;;5022430;28;87870;-61
2021/12/18 04:34:34;;;;;;;2.13;1.23;;;-0.60;77.00;-1.10;98475.00;;;;5021050;28;88845;-62
2021/12/18 04:37:01;;;;;;;5.78;1.33;;;-0.60;76.90;-1.10;98465.00;;;;5021875;28;87262;-60
2021/12/18 04:39:27;;;;;;;1.50;1.20;;;-0.60;76.70;-1.10;98471.00;;;;5021338;28;86299;-59
2021/12/18 04:41:57;;;;;;;2.67;1.27;;;-0.60;76.90;-1.10;98467.00;;;;5021957;28;87615;-60
2021/12/18 04:44:25;;;;;;;2.30;1.20;;;-0.60;77.00;-1.10;98466.00;;;;5021482;28;87875;-61
2021/12/18 04:46:53;;;;;;;1.45;1.10;;;-0.60;77.00;-1.10;98475.00;;;;5020840;28;88199;-60
2021/12/18 04:49:19;;;;;;;1.90;1.40;;;-0.60;76.90;-1.10;98492.00;;;;5021244;28;87421;-60
2021/12/18 04:51:45;;;;;;;2.05;1.30;;;-0.60;77.00;-1.20;98477.00;;;;5021889;28;88429;-60
2021/12/18 04:54:11;;;;;;;2.30;1.45;;;-0.60;76.90;-1.10;98480.00;;;;5020411;28;90467;-61
2021/12/18 04:56:37;;;;;;;1.95;1.40;;;-0.70;77.70;-1.20;98466.00;;;;5021571;28;87196;-61
2021/12/18 04:59:05;;;;;;;4.30;1.73;;;-0.70;78.40;-1.20;98477.00;;;;5021818;28;87212;-60
2021/12/18 05:01:36;;;;;;;1.23;1.13;;;-0.70;79.60;-1.30;98481.00;;;;5021784;28;88737;-61
2021/12/18 05:04:05;;;;;;;1.40;1.20;;;-0.80;81.70;-1.40;98470.00;;;;5022085;28;88288;-60
2021/12/18 05:06:33;;;;;;;1.63;1.38;;;-0.90;82.70;-1.50;98495.00;;;;5021828;28;86887;-61
2021/12/18 05:08:59;;;;;;;2.33;1.33;;;-1.00;83.30;-1.60;98473.00;;;;5021799;28;87580;-60
2021/12/18 05:11:25;;;;;;;2.10;1.25;;;-1.10;84.00;-1.60;98477.00;;;;5020459;28;88664;-60
2021/12/18 05:13:51;;;;;;;1.30;1.20;;;-1.10;84.30;-1.60;98473.00;;;;5021680;28;89313;-61
2021/12/18 05:16:18;;;;;;;2.78;1.35;;;-1.10;84.20;-1.70;98484.00;;;;5021230;28;87377;-61
2021/12/18 05:18:44;;;;;;;3.00;1.30;;;-1.20;83.00;-1.70;98485.00;;;;5020942;28;86980;-61
2021/12/18 05:21:10;;;;;;;1.75;1.05;;;-1.20;82.50;-1.70;98481.00;;;;5020320;28;89039;-61
2021/12/18 05:23:36;;;;;;;1.15;0.85;;;-1.20;81.90;-1.70;98483.00;;;;5018245;28;88337;-61
2021/12/18 05:26:03;;;;;;;1.90;1.17;;;-1.20;81.80;-1.70;98478.00;;;;5020302;28;87445;-61
2021/12/18 05:28:29;;;;;;;2.67;1.20;;;-1.20;81.40;-1.70;98473.00;;;;5018956;28;87991;-61
2021/12/18 05:30:55;;;;;;;1.50;1.15;;;-1.10;81.90;-1.70;98478.00;;;;5017485;28;87464;-61
2021/12/18 05:33:21;;;;;;;1.90;1.40;;;-1.10;81.10;-1.70;98477.00;;;;5020933;28;88550;-59
2021/12/18 05:35:47;;;;;;;2.38;1.50;;;-1.10;80.40;-1.70;98468.00;;;;5019601;28;88350;-61
2021/12/18 05:38:14;;;;;;;3.03;1.58;;;-1.10;80.40;-1.70;98475.00;;;;5020690;28;87265;-60
2021/12/18 05:40:40;;;;;;;2.80;1.60;;;-1.20;80.20;-1.70;98483.00;;;;5021097;28;87548;-60
2021/12/18 05:43:08;;;;;;;3.47;2.00;;;-1.10;80.10;-1.70;98468.00;;;;5021147;28;88427;-60
2021/12/18 05:45:36;;;;;;;3.08;2.20;;;-1.10;79.30;-1.70;98466.00;;;;5019745;28;87268;-61
2021/12/18 05:48:04;;;;;;;4.78;2.40;;;-1.10;79.60;-1.70;98473.00;;;;5019349;28;87733;-61
2021/12/18 05:50:30;;;;;;;4.47;3.03;;;-1.10;79.70;-1.70;98478.00;;;;5019128;28;87703;-61
2021/12/18 05:52:59;;;;;;;3.88;2.25;;;-1.10;78.80;-1.70;98473.00;;;;5019975;28;87028;-61
2021/12/18 05:55:27;;;;;;;4.22;2.80;;;-1.20;78.90;-1.70;98465.00;;;;5020666;28;87384;-61
2021/12/18 05:57:53;;;;;;;4.88;3.20;;;-1.20;79.00;-1.70;98483.00;;;;5020481;28;87024;-63
2021/12/18 06:00:21;;;;;;;6.20;3.40;;;-1.20;78.50;-1.70;98477.00;;;;5020112;28;88287;-60
2021/12/18 06:02:47;;;;;;;6.80;3.90;;;-1.20;78.70;-1.70;98474.00;;;;5020982;28;88271;-61
2021/12/18 06:05:13;;;;;;;6.95;4.15;;;-1.20;77.90;-1.70;98471.00;;;;5021710;28;87347;-61
2021/12/18 06:10:19;;;;;;;5.05;3.67;;;-1.20;78.00;-1.70;98469.00;;;;5020501;28;88171;-61
2021/12/18 06:12:45;;;;;;;5.97;4.20;;;-1.20;78.40;-1.70;98484.00;;;;5001059;28;86927;-62
2021/12/18 06:15:11;;;;;;;7.72;4.70;;;-1.20;77.90;-1.70;98480.00;;;;5019496;28;87428;-61
2021/12/18 06:17:38;;;;;;;7.18;4.75;;;-1.20;77.50;-1.70;98486.00;;;;5019366;28;86405;-61
2021/12/18 06:20:04;;;;;;;7.75;4.22;;;-1.20;77.60;-1.70;98480.00;;;;5019843;28;87631;-62
2021/12/18 06:22:30;;;;;;;7.18;4.80;;;-1.20;77.00;-1.70;98486.00;;;;5020448;28;87236;-61
2021/12/18 06:24:56;;;;;;;7.10;5.07;;;-1.20;77.90;-1.70;98481.00;;;;5020385;28;88247;-61
2021/12/18 06:27:23;;;;;;;7.45;5.03;;;-1.30;76.40;-1.80;98462.00;;;;5020359;28;87158;-61
2021/12/18 06:29:49;;;;;;;6.95;4.45;;;-1.20;76.40;-1.80;98480.00;;;;5020378;28;88451;-61
2021/12/18 06:32:15;;;;;;;7.57;5.25;;;-1.20;76.30;-1.70;98480.00;;;;5020266;28;88924;-61
2021/12/18 06:34:41;;;;;;;9.02;5.45;;;-1.30;75.90;-1.70;98469.00;;;;5018209;28;87178;-61
2021/12/18 06:37:07;;;;;;;9.43;5.72;;;-1.20;76.40;-1.70;98485.00;;;;5019270;28;87951;-61
2021/12/18 06:39:34;;;;;;;9.13;4.88;;;-1.20;76.20;-1.80;98492.00;;;;5020023;28;87835;-61
2021/12/18 06:42:00;;;;;;;7.50;4.22;;;-1.20;74.80;-1.70;98485.00;;;;5020989;28;87384;-62
2021/12/18 06:44:28;;;;;;;8.43;4.90;;;-1.20;74.70;-1.70;98477.00;;;;5020451;28;86925;-61
2021/12/18 06:46:56;;;;;;;6.55;3.25;;;-1.20;74.80;-1.70;98484.00;;;;5020069;28;87293;-61
2021/12/18 06:49:22;;;;;;;5.15;2.50;;;-1.20;74.40;-1.70;98484.00;;;;5018312;28;88688;-62
2021/12/18 06:51:49;;;;;;;3.97;2.58;;;-1.20;72.60;-1.70;98483.00;;;;5019907;28;89290;-61
2021/12/18 06:54:15;;;;;;;2.22;1.55;;;-1.20;72.80;-1.80;98473.00;;;;5020023;28;87202;-60
2021/12/18 06:56:41;;;;;;;3.90;1.75;;;-1.30;71.50;-1.80;98477.00;;;;5028428;28;87158;-60
2021/12/18 06:59:07;;;;;;;3.92;1.52;;;-1.30;71.50;-1.80;98484.00;;;;5012476;28;87512;-63
2021/12/18 07:01:35;;;;;;;5.15;1.90;;;-1.30;72.10;-1.80;98489.00;;;;5016117;28;87087;-61
2021/12/18 07:04:01;;;;;;;3.53;1.98;;;-1.30;72.30;-1.80;98486.00;;;;5019643;28;87004;-62
2021/12/18 07:06:28;;;;;;;2.63;1.85;;;-1.30;72.70;-1.80;98479.00;;;;5020713;28;86250;-61
2021/12/18 07:08:54;;;;;;;3.35;2.00;;;-1.30;73.10;-1.70;98480.00;;;;5020180;28;87516;-60
2021/12/18 07:11:21;;;;;;;3.78;1.90;;;-1.20;73.20;-1.70;98474.00;;;;5019316;28;87486;-61
2021/12/18 07:13:47;;;;;;;4.38;2.13;;;-1.20;73.30;-1.70;98479.00;;;;5015061;28;87979;-63
2021/12/18 07:16:13;;;;;;;5.25;1.60;;;-1.20;73.40;-1.70;98486.00;;;;5016194;28;87045;-62
2021/12/18 07:18:39;;;;;;;1.75;0.70;;;-1.20;72.60;-1.80;98487.00;;;;5018992;28;90150;-61
2021/12/18 07:21:05;;;;;;;1.77;0.80;;;-1.30;71.20;-1.80;98486.00;;;;5019390;28;87387;-61
2021/12/18 07:23:32;;;;;;;2.08;0.70;;;-1.30;71.40;-1.80;98488.00;;;;5019675;28;86993;-61
2021/12/18 07:25:58;;;;;;;2.60;0.80;;;-1.30;70.70;-1.80;98480.00;;;;5020055;28;86994;-61
2021/12/18 07:28:24;;;;;;;1.60;0.80;;;-1.30;69.80;-1.70;98481.00;;;;5018506;28;88211;-61
2021/12/18 07:30:50;;;;;;;2.03;0.95;;;-1.20;70.60;-1.70;98488.00;;;;5019641;28;87374;-61
2021/12/18 07:33:17;;;;;;;1.65;0.80;;;-1.20;69.80;-1.70;98478.00;;;;5019924;28;88050;-61
2021/12/18 07:35:43;;;;;;;2.70;0.80;;;-1.20;70.00;-1.70;98488.00;;;;5018730;28;86998;-61
2021/12/18 07:38:11;;;;;;;1.88;0.80;;;-1.20;70.00;-1.70;98482.00;;;;5018534;28;90602;-61
2021/12/18 07:40:38;;;;;;;1.20;0.85;;;-1.20;69.90;-1.60;98485.00;;;;5019176;28;88276;-61
2021/12/18 07:43:04;;;;;;;1.52;0.85;;;-1.10;69.80;-1.60;98483.00;;;;5020058;28;86993;-61
2021/12/18 07:45:33;;;;;;;1.33;0.70;;;-1.20;69.40;-1.60;98491.00;;;;5019082;28;87055;-61
2021/12/18 07:48:01;;;;;;;1.38;0.65;;;-1.10;69.70;-1.50;98489.00;;;;5020221;28;88657;-61
2021/12/18 07:50:28;;;;;;;1.20;0.63;;;-1.00;69.70;-1.50;98485.00;;;;5022829;28;87764;-61
2021/12/18 07:52:54;;;;;;;1.25;0.65;;;-1.00;69.90;-1.50;98479.00;;;;5021781;28;87015;-61
2021/12/18 07:55:21;;;;;;;3.53;0.90;;;-1.00;69.90;-1.50;98494.00;;;;5019745;28;86778;-61
2021/12/18 07:57:50;;;;;;;0.82;0.80;;;-1.00;69.80;-1.50;98486.00;;;;5022601;28;87601;-61
2021/12/18 08:00:17;;;;;;;1.77;0.95;;;-1.00;70.30;-1.50;98489.00;;;;5004683;28;87590;-61
2021/12/18 08:02:44;;;;;;;0.70;0.60;;;-1.00;70.40;-1.60;98484.00;;;;5022760;28;88302;-62
2021/12/18 08:05:11;;;;;;;1.52;0.70;;;-1.20;70.80;-1.70;98475.00;;;;5023115;28;86960;-61
2021/12/18 08:07:37;;;;;;;2.40;0.95;;;-1.20;71.80;-1.70;98475.00;;;;5022197;28;88577;-61
2021/12/18 08:10:05;;;;;;;1.27;0.80;;;-1.30;72.60;-1.80;98477.00;;;;5021933;28;88689;-61
2021/12/18 08:12:31;;;;;;;0.90;0.70;;;-1.30;72.70;-1.80;98463.00;;;;5022357;28;87235;-61
2021/12/18 08:14:58;;;;;;;1.48;0.90;;;-1.40;73.10;-1.80;98456.00;;;;5022875;28;87304;-61
2021/12/18 08:17:25;;;;;;;2.92;0.95;;;-1.30;73.50;-1.70;98462.00;;;;5021679;28;88558;-60
2021/12/18 08:19:52;;;;;;;4.45;1.50;;;-1.30;74.00;-1.70;98449.00;;;;5018206;28;88378;-61
2021/12/18 08:22:18;;;;;;;2.90;1.75;;;-1.30;75.20;-1.70;98456.00;;;;5022110;28;87251;-61
2021/12/18 08:24:44;;;;;;;2.97;1.52;;;-1.20;76.00;-1.70;98457.00;;;;5021914;28;87278;-60
2021/12/18 08:27:11;;;;;;;3.55;1.83;;;-1.20;76.40;-1.70;98456.00;;;;5021398;28;88437;-60
2021/12/18 08:29:37;;;;;;;5.80;2.38;;;-1.20;77.70;-1.70;98444.00;;;;5021902;28;88123;-60
2021/12/18 08:32:04;;;;;;;5.43;2.30;;;-1.20;81.50;-1.70;98446.00;;;;5022243;28;87492;-60
2021/12/18 08:34:30;;;;;;;4.25;2.13;;;-1.20;82.50;-1.70;98440.00;;;;5019944;28;87150;-60
2021/12/18 08:36:56;;;;;;;4.63;2.45;;;-1.20;82.90;-1.70;98439.00;;;;5020426;28;88765;-60
2021/12/18 08:39:22;;;;;;;5.47;2.78;;;-1.20;83.10;-1.70;98428.00;;;;5021477;28;87285;-60
2021/12/18 08:41:49;;;;;;;3.75;2.60;;;-1.20;83.50;-1.70;98424.00;;;;5021883;28;87269;-61
2021/12/18 08:44:15;;;;;;;3.28;1.90;;;-1.20;83.60;-1.70;98417.00;;;;5022187;28;86533;-61
2021/12/18 08:46:42;;;;;;;2.92;1.90;;;-1.20;83.80;-1.70;98425.00;;;;5021046;28;87740;-61
2021/12/18 08:49:09;;;;;;;5.57;2.90;;;-1.30;83.30;-1.70;98418.00;;;;5021701;28;87468;-61
2021/12/18 08:51:39;;;;;;;6.40;2.50;;;-1.20;84.00;-1.70;98412.00;;;;5021121;28;87945;-61
2021/12/18 08:54:06;;;;;;;2.92;2.17;;;-1.20;84.30;-1.70;98410.00;;;;5021586;28;87255;-61
2021/12/18 08:56:32;;;;;;;4.45;2.40;;;-1.20;84.50;-1.70;98414.00;;;;5032708;28;87803;-60
2021/12/18 08:59:00;;;;;;;6.25;2.85;;;-1.20;84.60;-1.70;98407.00;;;;5025499;28;87876;-61
2021/12/18 09:01:28;;;;;;;6.75;2.35;;;-1.20;85.00;-1.80;98404.00;;;;5021600;28;87370;-60
2021/12/18 09:03:54;;;;;;;4.82;1.95;;;-1.30;83.10;-1.80;98404.00;;;;5020725;28;87286;-61
2021/12/18 09:06:21;;;;;;;2.78;1.90;;;-1.40;83.30;-1.90;98401.00;;;;5022373;28;87972;-61
2021/12/18 09:08:48;;;;;;;4.90;1.95;;;-1.40;82.70;-1.90;98383.00;;;;5022554;28;87847;-62
2021/12/18 09:11:15;;;;;;;3.17;2.40;;;-1.40;83.00;-1.90;98395.00;;;;5027767;28;86995;-61
2021/12/18 09:13:41;;;;;;;3.97;2.30;;;-1.40;83.80;-1.90;98389.00;;;;5037658;28;87011;-61
2021/12/18 09:16:07;;;;;;;2.95;2.20;;;-1.40;84.60;-1.80;98383.00;;;;5020911;28;89610;-61
2021/12/18 09:18:34;;;;;;;5.32;2.40;;;-1.30;84.60;-1.90;98390.00;;;;5021053;28;88689;-61
2021/12/18 09:21:01;;;;;;;3.03;2.10;;;-1.40;84.60;-1.90;98384.00;;;;5021260;28;87080;-64
2021/12/18 09:23:27;;;;;;;4.07;1.92;;;-1.40;84.10;-1.90;98392.00;;;;5021288;28;87682;-61
2021/12/18 09:25:55;;;;;;;4.05;2.20;;;-1.40;83.70;-1.90;98380.00;;;;5021712;28;87458;-61
2021/12/18 09:28:22;;;;;;;3.83;2.28;;;-1.40;83.70;-1.90;98373.00;;;;5003890;28;89833;-62
2021/12/18 09:30:48;;;;;;;3.70;2.35;;;-1.40;83.90;-1.90;98369.00;;;;5021570;28;87472;-62
2021/12/18 09:33:16;;;;;;;4.95;2.47;;;-1.40;84.20;-1.90;98372.00;;;;5020496;28;86658;-63
2021/12/18 09:35:42;;;;;;;3.47;2.40;;;-1.40;83.50;-1.90;98378.00;;;;5020779;28;88624;-62
2021/12/18 09:38:08;;;;;;;3.72;1.85;;;-1.40;84.20;-1.90;98346.00;;;;5020508;28;87276;-61
2021/12/18 09:40:35;;;;;;;3.95;1.98;;;-1.40;81.60;-1.90;98355.00;;;;5019805;28;87985;-62
2021/12/18 09:43:01;;;;;;;3.55;2.03;;;-1.40;81.50;-2.00;98362.00;;;;5020827;28;87004;-62
2021/12/18 09:45:28;;;;;;;2.60;1.90;;;-1.40;81.00;-2.00;98353.00;;;;5016031;28;88960;-62
2021/12/18 09:47:54;;;;;;;4.72;1.98;;;-1.40;80.60;-1.90;98358.00;;;;5020547;28;87508;-61
2021/12/18 09:50:24;;;;;;;4.25;2.20;;;-1.40;80.30;-2.00;98341.00;;;;5021170;28;87260;-62
2021/12/18 09:52:52;;;;;;;3.72;2.08;;;-1.50;80.30;-2.00;98342.00;;;;5020662;28;87050;-62
2021/12/18 09:55:18;;;;;;;2.83;2.00;;;-1.40;80.70;-1.90;98339.00;;;;5021881;28;87449;-62
2021/12/18 09:57:47;;;;;;;4.68;2.30;;;-1.40;80.50;-1.90;98321.00;;;;5041180;27;87220;-62
2021/12/18 10:00:22;;;;;;;4.15;2.60;;;-1.40;80.00;-1.90;98322.00;;;;5021273;28;87335;-61
2021/12/18 10:02:49;;;;;;;4.05;2.25;;;-1.40;79.40;-1.90;98342.00;;;;5021663;28;86925;-61
2021/12/18 10:05:27;;;;;;;3.95;1.88;;;-1.40;78.90;-1.90;98335.00;;;;5020723;28;89606;-62
2021/12/18 10:08:18;;;;;;;3.92;1.70;;;-1.40;78.60;-1.90;98331.00;;;;5014684;28;88287;-62
2021/12/18 10:10:59;;;;;;;4.13;1.93;;;-1.40;78.10;-1.90;98315.00;;;;5019620;28;87561;-60
2021/12/18 10:13:26;;;;;;;4.32;2.00;;;-1.40;77.80;-1.90;98320.00;;;;5001870;28;86930;-63
2021/12/18 10:16:20;;;;;;;2.35;1.50;;;-1.40;78.20;-1.90;98324.00;;;;5021513;28;88660;-62
2021/12/18 10:18:46;;;;;;;3.60;1.77;;;-1.40;78.00;-1.90;98318.00;;;;5005315;28;88329;-64
2021/12/18 10:21:18;;;;;;;2.67;1.55;;;-1.40;78.10;-1.90;98314.00;;;;5020931;28;86958;-62
2021/12/18 10:23:46;;;;;;;3.50;1.60;;;-1.40;77.30;-1.80;98320.00;;;;5020236;28;86167;-61
2021/12/18 10:26:33;;;;;;;2.55;1.80;;;-1.30;77.30;-1.90;98330.00;;;;5019228;28;87836;-61
2021/12/18 10:28:59;;;;;;;1.90;1.38;;;-1.40;76.10;-2.00;98320.00;;;;5001080;28;87608;-61
2021/12/18 10:31:46;;;;;;;3.47;2.00;;;-1.50;76.00;-2.00;98314.00;;;;5006082;28;88336;-61
2021/12/18 10:34:28;;;;;;;3.33;1.20;;;-1.50;76.30;-2.00;98310.00;;;;5019820;28;86918;-63
2021/12/18 10:37:20;;;;;;;;;;;-1.50;75.10;-2.10;98317.00;;;;5016273;28;88738;-63
2021/12/18 10:39:57;;;;;;;2.40;1.30;;;-1.60;75.20;-2.10;98319.00;;;;5019860;28;87017;-63
2021/12/18 10:42:39;;;;;;;3.00;1.60;;;-1.60;75.90;-2.10;98331.00;;;;5020358;28;87333;-62
2021/12/18 10:45:23;;;;;;;6.10;1.80;;;-1.50;76.10;-2.10;98323.00;;;;5020220;28;87286;-63
2021/12/18 10:48:12;;;;;;;2.97;1.60;;;-1.60;77.30;-2.10;98322.00;;;;5019799;28;87701;-63
2021/12/18 10:50:49;;;;;;;10.73;2.47;;;-1.60;77.70;-2.10;98321.00;;;;5020493;28;87377;-63
2021/12/18 10:53:18;;;;;;;4.30;1.60;;;-1.50;78.20;-2.10;98320.00;;;;5020592;28;87558;-63
2021/12/18 10:55:53;;;;;;;2.70;1.38;;;-1.60;78.00;-2.10;98322.00;;;;5019790;28;87522;-63
2021/12/18 10:58:25;;;;;;;3.28;1.33;;;-1.60;77.80;-2.20;98313.00;;;;5019903;28;89566;-63
2021/12/18 11:01:14;;;;;;;2.28;1.17;;;-1.70;75.90;-2.20;98312.00;;;;5000042;28;88106;-63
2021/12/18 11:03:44;;;;;;;2.08;1.27;;;-1.70;75.80;-2.20;98309.00;;;;4999790;28;87368;-62
2021/12/18 11:06:17;;;;;;;2.60;1.83;;;-1.70;75.90;-2.20;98300.00;;;;5000239;28;86934;-64
2021/12/18 11:09:12;;;;;;;1.08;0.98;;;-1.70;75.50;-2.20;98309.00;;;;5000341;28;87681;-64
2021/12/18 11:14:13;;;;;;;;;;;-1.60;73.20;-2.20;98310.00;;;;5033279;28;86879;-64
2021/12/18 11:16:43;;;;;;;1.45;0.77;;;-1.70;71.90;-2.20;98307.00;;;;5020937;28;86294;-64
2021/12/18 11:19:16;;;;;;;1.00;0.85;;;-1.70;70.40;-2.20;98303.00;;;;5019235;28;87542;-63
2021/12/18 11:21:46;;;;;;;1.20;0.73;;;-1.70;70.30;-2.20;98306.00;;;;5019462;28;87063;-64
2021/12/18 11:24:13;;;;;;;1.38;0.90;;;-1.70;70.30;-2.20;98292.00;;;;5023645;28;88067;-63
2021/12/18 11:27:02;;;;;;;3.35;1.15;;;-1.70;70.40;-2.20;98300.00;;;;5022579;28;87132;-63
2021/12/18 11:29:55;;;;;;;3.22;1.00;;;-1.70;70.30;-2.20;98288.00;;;;5019785;28;88492;-63
2021/12/18 11:32:29;;;;;;;2.55;0.88;;;-1.70;70.80;-2.30;98305.00;;;;5023229;28;88339;-64
2021/12/18 11:34:59;;;;;;;1.15;0.73;;;-1.70;70.30;-2.20;98282.00;;;;5023153;28;87286;-63
2021/12/18 11:37:27;;;;;;;5.07;1.02;;;-1.70;69.70;-2.20;98286.00;;;;5023068;28;86970;-63
2021/12/18 11:39:58;;;;;;;2.28;0.80;;;-1.70;70.40;-2.20;98287.00;;;;5021997;28;87538;-63
2021/12/18 11:42:30;;;;;;;5.33;1.07;;;-1.70;70.30;-2.20;98285.00;;;;5023504;28;87378;-63
2021/12/18 11:44:59;;;;;;;1.90;1.10;;;-1.70;70.30;-2.10;98281.00;;;;5022832;28;87138;-63
2021/12/18 11:47:44;;;;;;;1.67;1.08;;;-1.60;70.80;-2.10;98272.00;;;;5010851;28;90278;-64